Time;durP1;ratioP1;P1;durP2;ratioP2;P2;SDS_P1;SDS_P2;PMS_P1;PMS_P2;Temp;Humidity;BMP_temperature;BMP_pressure;BME280_temperature;BME280_humidity;BME280_pressure;Samples;Min_cycle;Max_cycle;Signal;HPM_P1;HPM_P2
2022/06/17 00:05:59;;;;;;;2.25;1.77;;;;;;;18.45;74.97;102122.44;20835691;28;20049;-75
2022/06/17 00:16:01;;;;;;;1.58;1.38;;;;;;;18.45;74.99;102122.44;20906465;28;20041;-75
2022/06/17 00:26:03;;;;;;;1.73;1.63;;;;;;;18.36;74.99;102092.47;20836856;28;20498;-75
2022/06/17 00:36:06;;;;;;;1.75;1.65;;;;;;;18.40;74.93;102125.47;20823689;28;20045;-76
2022/06/17 00:46:23;;;;;;;2.03;1.60;;;;;;;18.41;74.95;102130.75;20887951;28;20053;-75
2022/06/17 00:56:28;;;;;;;1.70;1.60;;;;;;;18.28;74.85;102116.41;20905546;28;20056;-75
2022/06/17 01:06:35;;;;;;;1.85;1.60;;;;;;;18.39;74.75;102132.69;20905821;28;20152;-75
2022/06/17 01:16:39;;;;;;;1.98;1.55;;;;;;;18.32;74.56;102112.53;20871116;28;20049;-75
2022/06/17 01:26:47;;;;;;;1.70;1.60;;;;;;;18.37;74.64;102125.69;20821830;28;20369;-75
2022/06/17 01:36:50;;;;;;;1.80;1.70;;;;;;;18.12;74.50;102078.91;20889247;28;20059;-75
2022/06/17 01:46:54;;;;;;;2.60;1.98;;;;;;;18.33;74.60;102105.28;20888505;28;20076;-76
2022/06/17 01:56:59;;;;;;;1.60;1.50;;;;;;;18.36;74.36;102102.41;20904827;28;20049;-75
2022/06/17 02:07:11;;;;;;;1.77;1.67;;;;;;;18.34;74.31;102102.50;20887953;28;20065;-75
2022/06/17 02:17:14;;;;;;;2.85;1.80;;;;;;;18.34;74.02;102105.19;20788149;28;20107;-75
2022/06/17 02:27:27;;;;;;;1.65;1.50;;;;;;;18.33;74.11;102103.47;20821079;28;20038;-75
2022/06/17 02:37:30;;;;;;;1.83;1.65;;;;;;;18.33;73.92;102092.69;20803307;28;20506;-75
2022/06/17 02:47:32;;;;;;;1.90;1.70;;;;;;;18.32;73.83;102100.88;20802283;28;20133;-75
2022/06/17 02:57:34;;;;;;;2.30;1.80;;;;;;;18.30;73.80;102092.91;20801203;28;20063;-75
2022/06/17 03:07:37;;;;;;;2.13;1.92;;;;;;;18.25;73.72;102084.28;20801378;28;20057;-75
2022/06/17 03:17:47;;;;;;;2.20;2.00;;;;;;;18.29;73.47;102084.91;20849997;28;20123;-75
2022/06/17 03:27:56;;;;;;;1.70;1.48;;;;;;;18.29;73.43;102085.78;20881749;28;20041;-75
2022/06/17 03:38:01;;;;;;;2.03;1.83;;;;;;;18.28;73.43;102094.84;20881850;28;20055;-75
2022/06/17 03:48:13;;;;;;;1.73;1.60;;;;;;;18.09;73.42;102074.59;20784992;28;20497;-75
2022/06/17 03:58:17;;;;;;;1.83;1.65;;;;;;;18.27;73.12;102085.03;20847906;28;20104;-75
2022/06/17 04:08:25;;;;;;;1.80;1.70;;;;;;;18.23;73.28;102091.63;20757179;28;20167;-75
2022/06/17 04:18:27;;;;;;;2.55;1.73;;;;;;;18.26;73.12;102102.19;20802126;28;20069;-76
2022/06/17 04:28:52;;;;;;;1.90;1.77;;;;;;;18.18;73.46;102088.41;20827543;28;20076;-75
2022/06/17 04:39:03;;;;;;;2.83;1.52;;;;;;;18.26;74.43;102096.78;20832145;28;20045;-76
2022/06/17 04:49:22;;;;;;;3.08;2.20;;;;;;;18.27;74.08;102095.81;20821507;28;20053;-76
2022/06/17 04:59:34;;;;;;;1.97;1.73;;;;;;;18.28;74.50;102116.41;20823739;28;20045;-76
2022/06/17 05:09:42;;;;;;;2.53;1.92;;;;;;;18.17;74.71;102089.38;20797837;28;20042;-76
2022/06/17 05:19:49;;;;;;;2.33;2.00;;;;;;;18.26;74.27;102104.88;20833887;28;20508;-75
2022/06/17 05:29:51;;;;;;;2.75;2.03;;;;;;;18.25;74.28;102098.63;20846358;28;20046;-75
2022/06/17 05:39:55;;;;;;;3.40;1.95;;;;;;;18.25;74.32;102095.91;20888806;28;20040;-76
2022/06/17 05:49:57;;;;;;;3.30;2.33;;;;;;;18.07;74.38;102062.22;20844667;28;20045;-75
2022/06/17 06:00:18;;;;;;;2.05;1.85;;;;;;;18.26;74.57;102091.41;20774759;28;20111;-76
2022/06/17 06:10:22;;;;;;;2.87;2.03;;;;;;;18.26;74.43;102086.84;20774112;28;20046;-75
2022/06/17 06:20:24;;;;;;;3.33;2.17;;;;;;;18.23;74.51;102057.44;20805349;28;20041;-75
2022/06/17 06:30:29;;;;;;;2.42;1.88;;;;;;;18.26;74.40;102083.31;20866853;28;20052;-75
2022/06/17 06:40:32;;;;;;;;;;;;;;;18.28;74.39;102089.47;20873437;28;20651;-76
2022/06/17 06:50:35;;;;;;;4.60;2.13;;;;;;;18.27;74.46;102099.38;20841971;28;19928;-75
2022/06/17 07:00:39;;;;;;;2.90;2.03;;;;;;;18.15;74.65;102067.06;20793363;28;20041;-76
2022/06/17 07:10:43;;;;;;;2.75;2.17;;;;;;;18.30;74.51;102076.72;20786581;28;20069;-76
2022/06/17 07:20:51;;;;;;;3.75;2.13;;;;;;;18.33;74.65;102059.47;20777375;28;20045;-76
2022/06/17 07:30:54;;;;;;;3.10;2.00;;;;;;;18.36;74.65;102065.50;20865770;28;20041;-76
2022/06/17 07:40:56;;;;;;;2.75;2.10;;;;;;;18.36;74.73;102065.50;20781029;28;20049;-75
2022/06/17 07:50:58;;;;;;;1.95;1.60;;;;;;;18.09;74.71;102009.91;20763430;28;20041;-76
2022/06/17 08:01:00;;;;;;;2.40;2.00;;;;;;;18.24;74.59;102007.94;20765398;28;20069;-76
2022/06/17 08:11:02;;;;;;;2.88;1.95;;;;;;;18.48;74.53;102046.69;20787053;28;20050;-76
2022/06/17 08:21:04;;;;;;;2.13;1.92;;;;;;;18.48;74.58;102057.47;20751528;28;20038;-76
2022/06/17 08:31:06;;;;;;;2.92;2.00;;;;;;;18.48;74.67;102042.19;20839430;28;20057;-75
2022/06/17 08:41:19;;;;;;;2.28;2.00;;;;;;;18.48;74.64;102042.19;20865277;28;20045;-76
2022/06/17 08:51:36;;;;;;;1.98;1.88;;;;;;;18.48;74.81;102030.53;20828659;28;20049;-75
2022/06/17 09:02:19;;;;;;;3.60;1.95;;;;;;;18.49;74.78;102041.22;20841618;28;20141;-75
2022/06/17 09:12:37;;;;;;;1.70;1.60;;;;;;;18.48;74.76;102031.41;20782726;28;20045;-75
2022/06/17 09:22:42;;;;;;;2.42;2.00;;;;;;;18.48;74.90;102046.69;20857298;28;20061;-75
2022/06/17 09:33:06;;;;;;;2.05;1.85;;;;;;;18.48;74.92;102036.78;20792369;28;20046;-74
2022/06/17 09:43:12;;;;;;;1.95;1.80;;;;;;;18.46;74.83;102041.44;20798448;28;20050;-75
2022/06/17 09:53:16;;;;;;;2.17;1.80;;;;;;;18.48;74.82;102019.75;20776868;28;20052;-76
2022/06/17 10:03:27;;;;;;;3.17;1.98;;;;;;;18.47;75.00;102012.63;20779841;28;20112;-76
2022/06/17 10:13:42;;;;;;;1.92;1.60;;;;;;;18.44;75.27;102012.84;20775701;28;20057;-75
2022/06/17 10:24:08;;;;;;;2.23;1.90;;;;;;;18.49;75.26;102024.16;20873017;28;20103;-76
2022/06/17 10:34:17;;;;;;;3.45;1.98;;;;;;;18.33;75.09;102003.72;20781480;28;20076;-76
2022/06/17 10:44:23;;;;;;;2.47;1.80;;;;;;;18.49;75.27;102007.97;20803765;28;20041;-75
2022/06/17 10:54:29;;;;;;;1.63;1.40;;;;;;;17.83;75.18;101877.06;20847867;28;20063;-76
2022/06/17 11:04:35;;;;;;;2.95;1.77;;;;;;;18.46;75.43;102005.50;20782460;28;20053;-75
2022/06/17 11:14:43;;;;;;;3.90;1.70;;;;;;;18.50;75.49;101993.53;20764953;28;20054;-75
2022/06/17 11:24:51;;;;;;;1.80;1.65;;;;;;;18.50;75.43;101988.13;20780444;28;20054;-75
2022/06/17 11:34:58;;;;;;;2.95;1.88;;;;;;;18.51;75.48;101962.88;20791597;28;20045;-75
2022/06/17 11:45:05;;;;;;;1.77;1.67;;;;;;;18.50;75.46;101947.69;20785955;28;20056;-75
2022/06/17 11:55:06;;;;;;;2.03;1.73;;;;;;;18.34;75.63;101911.09;20780988;28;20033;-75
2022/06/17 12:05:20;;;;;;;1.77;1.65;;;;;;;18.51;75.65;101938.63;20767714;28;20042;-75
2022/06/17 12:15:34;;;;;;;3.40;2.00;;;;;;;18.51;75.65;101922.44;20770053;28;20057;-75
2022/06/17 12:25:44;;;;;;;2.33;1.67;;;;;;;18.51;75.73;101900.88;20814573;28;20127;-75
2022/06/17 12:35:48;;;;;;;2.50;1.88;;;;;;;18.52;75.69;101887.28;20786148;28;20072;-75
2022/06/17 12:45:58;;;;;;;1.80;1.70;;;;;;;18.54;76.06;101868.28;20783181;28;20154;-76
2022/06/17 12:56:22;;;;;;;3.42;1.63;;;;;;;18.38;76.67;101847.03;20812279;28;20120;-76
2022/06/17 13:06:39;;;;;;;3.58;1.73;;;;;;;18.55;76.93;101864.59;20816444;28;20060;-76
2022/06/17 13:16:46;;;;;;;1.95;1.75;;;;;;;18.46;77.41;101843.72;20845446;28;20057;-75
2022/06/17 13:26:58;;;;;;;3.53;1.80;;;;;;;18.54;78.12;101842.19;20764314;28;20569;-76
2022/06/17 13:37:04;;;;;;;2.90;1.90;;;;;;;18.53;79.68;101818.00;20831413;28;20040;-75
2022/06/17 13:47:15;;;;;;;5.10;2.38;;;;;;;18.57;79.56;101819.53;20787058;28;20460;-75
2022/06/17 13:57:26;;;;;;;4.15;2.25;;;;;;;18.54;79.85;101796.34;20778738;28;20068;-75
2022/06/17 14:07:50;;;;;;;3.33;2.17;;;;;;;18.59;79.94;101804.09;20765699;28;20049;-76
2022/06/17 14:17:54;;;;;;;4.07;2.53;;;;;;;18.59;79.58;101797.81;20832347;28;20045;-76
2022/06/17 14:27:59;;;;;;;6.03;2.00;;;;;;;18.59;79.76;101790.59;20800460;28;20041;-76
2022/06/17 14:38:23;;;;;;;3.23;2.83;;;;;;;18.60;79.71;101767.16;20797572;28;20616;-76
2022/06/17 14:48:49;;;;;;;2.92;2.28;;;;;;;18.60;79.96;101743.78;20856453;28;20054;-75
2022/06/17 14:59:04;;;;;;;4.55;2.08;;;;;;;18.61;80.03;101734.69;20813522;28;20559;-76
2022/06/17 15:09:05;;;;;;;;;;;;;;;18.61;79.98;101755.41;20870513;28;20044;-76
2022/06/17 15:19:14;;;;;;;3.45;1.98;;;;;;;18.52;79.91;101716.53;20898703;28;19943;-76
2022/06/17 15:29:18;;;;;;;5.05;2.00;;;;;;;18.60;80.06;101718.63;20819937;28;20100;-75
2022/06/17 15:39:29;;;;;;;3.00;1.97;;;;;;;18.60;79.89;101724.91;20780742;28;20057;-75
2022/06/17 15:49:37;;;;;;;3.38;2.25;;;;;;;18.60;79.77;101719.50;20800855;28;20099;-75
2022/06/17 15:59:39;;;;;;;2.00;1.70;;;;;;;18.60;79.52;101713.22;20827073;28;20048;-75
2022/06/17 16:09:53;;;;;;;2.58;1.80;;;;;;;18.52;79.47;101693.13;20882234;28;20569;-76
2022/06/17 16:20:00;;;;;;;2.53;1.90;;;;;;;18.60;79.28;101706.00;20881229;28;20148;-75
2022/06/17 16:30:26;;;;;;;3.58;1.75;;;;;;;18.60;79.35;101695.22;20879196;28;20045;-75
2022/06/17 16:50:54;;;;;;;2.30;1.50;;;;;;;18.61;79.15;101664.59;20815111;28;20053;-75
2022/06/17 17:00:56;;;;;;;4.00;1.88;;;;;;;18.50;79.12;101640.28;20868576;28;20125;-76
2022/06/17 17:10:58;;;;;;;2.03;1.60;;;;;;;18.66;79.00;101650.72;20876592;28;20497;-75
2022/06/17 17:21:02;;;;;;;3.22;1.60;;;;;;;18.62;78.76;101627.66;20893813;28;20088;-75
2022/06/17 17:31:04;;;;;;;1.63;1.52;;;;;;;18.68;78.63;101616.38;20893411;28;20048;-75
2022/06/17 17:41:25;;;;;;;2.30;1.70;;;;;;;18.67;78.42;101604.75;20891884;28;20413;-76
2022/06/17 17:51:27;;;;;;;2.05;1.80;;;;;;;18.65;78.32;101605.84;20811327;28;20041;-75
2022/06/17 18:01:40;;;;;;;2.13;1.92;;;;;;;18.58;78.01;101572.28;20829225;28;20528;-75
2022/06/17 18:11:44;;;;;;;2.42;1.67;;;;;;;18.61;78.14;101575.59;20805303;28;20124;-75
2022/06/17 18:21:46;;;;;;;2.72;1.80;;;;;;;18.61;78.22;101577.41;20888474;28;20045;-75
2022/06/17 18:31:49;;;;;;;1.85;1.60;;;;;;;18.59;78.48;101558.69;20887722;28;20048;-75
2022/06/17 18:52:13;;;;;;;1.67;1.50;;;;;;;18.58;78.72;101559.66;20859291;28;20050;-75
2022/06/17 19:02:21;;;;;;;2.05;1.70;;;;;;;18.57;79.06;101548.97;20802975;28;20053;-75
2022/06/17 19:22:54;;;;;;;1.63;1.30;;;;;;;18.56;79.46;101534.66;20799442;28;20403;-75
2022/06/17 19:33:00;;;;;;;1.77;1.58;;;;;;;18.46;79.26;101515.66;20817443;28;20502;-75
2022/06/17 19:43:02;;;;;;;1.75;1.65;;;;;;;18.26;79.98;101483.09;20800018;28;20133;-75
2022/06/17 19:53:09;;;;;;;1.98;1.70;;;;;;;18.55;80.04;101532.91;20781469;28;20095;-77
2022/06/17 20:03:13;;;;;;;1.75;1.65;;;;;;;18.53;80.21;101533.06;20849311;28;20060;-76
2022/06/17 20:13:15;;;;;;;1.40;1.30;;;;;;;18.48;80.36;101523.63;20835131;28;20116;-75
2022/06/17 20:23:16;;;;;;;2.45;1.42;;;;;;;18.53;80.35;101529.50;20807066;28;20115;-76
2022/06/17 20:33:18;;;;;;;1.52;1.40;;;;;;;18.45;80.52;101507.69;20812323;28;20052;-76
2022/06/17 20:43:19;;;;;;;1.80;1.58;;;;;;;18.52;80.51;101506.22;20812840;28;20045;-75
2022/06/17 20:53:22;;;;;;;1.30;1.20;;;;;;;18.51;80.59;101513.47;20811900;28;20045;-76
2022/06/17 21:03:26;;;;;;;1.70;1.60;;;;;;;18.50;80.57;101494.69;20809806;28;20099;-76
2022/06/17 21:13:31;;;;;;;2.17;1.50;;;;;;;18.50;80.62;101483.91;20810103;28;20080;-76
2022/06/17 21:23:36;;;;;;;1.57;1.47;;;;;;;18.49;80.71;101483.06;20874832;28;20291;-76
2022/06/17 21:33:38;;;;;;;2.22;1.73;;;;;;;18.49;80.68;101469.59;20886276;28;20570;-76
2022/06/17 21:43:40;;;;;;;2.45;1.70;;;;;;;18.49;80.61;101460.63;20889670;28;20501;-76
2022/06/17 21:53:42;;;;;;;2.17;1.60;;;;;;;18.49;80.67;101450.72;20828419;28;20510;-76
2022/06/17 22:03:44;;;;;;;2.58;1.90;;;;;;;18.50;80.89;101443.47;20805614;28;20049;-76
2022/06/17 22:13:46;;;;;;;2.00;1.80;;;;;;;18.43;80.98;101424.25;20805634;28;20116;-76
2022/06/17 22:23:47;;;;;;;2.20;1.80;;;;;;;18.48;80.76;101427.44;20804006;28;20452;-76
2022/06/17 22:33:49;;;;;;;2.58;1.80;;;;;;;18.44;80.72;101408.94;20820792;28;20049;-76
2022/06/17 22:43:50;;;;;;;2.10;1.73;;;;;;;18.48;80.83;101405.00;20803971;28;20053;-76
2022/06/17 22:53:53;;;;;;;2.40;1.90;;;;;;;18.49;80.58;101401.31;20803732;28;20136;-76
2022/06/17 23:14:17;;;;;;;2.05;1.85;;;;;;;18.48;80.81;101387.00;20799939;28;20053;-75
2022/06/17 23:24:18;;;;;;;2.10;1.90;;;;;;;18.47;80.72;101381.72;20801087;28;20045;-76
2022/06/17 23:34:20;;;;;;;1.88;1.77;;;;;;;18.41;80.47;101375.00;20800750;28;20052;-76
2022/06/17 23:44:22;;;;;;;2.25;1.67;;;;;;;18.46;80.96;101372.78;20797190;28;20095;-76
2022/06/17 23:54:29;;;;;;;1.60;1.50;;;;;;;18.48;80.61;101367.25;20798736;28;20516;-76
